sensor_id;sensor_type;location;lat;lon;timestamp;P1;durP1;ratioP1;P2;durP2;ratioP2
40755;SDS011;26461;45.630;9.418;2023-01-05T00:00:43;20.85;;;12.40;;
40755;SDS011;26461;45.630;9.418;2023-01-05T00:03:53;19.83;;;12.95;;
40755;SDS011;26461;45.630;9.418;2023-01-05T00:07:02;32.25;;;17.42;;
40755;SDS011;26461;45.630;9.418;2023-01-05T00:10:12;16.02;;;11.98;;
40755;SDS011;26461;45.630;9.418;2023-01-05T00:13:42;21.25;;;13.20;;
40755;SDS011;26461;45.630;9.418;2023-01-05T00:17:11;20.92;;;15.88;;
40755;SDS011;26461;45.630;9.418;2023-01-05T00:20:40;27.50;;;16.05;;
40755;SDS011;26461;45.630;9.418;2023-01-05T00:24:08;21.30;;;13.27;;
40755;SDS011;26461;45.630;9.418;2023-01-05T00:27:18;24.13;;;15.02;;
40755;SDS011;26461;45.630;9.418;2023-01-05T00:30:46;25.27;;;15.52;;
40755;SDS011;26461;45.630;9.418;2023-01-05T00:33:56;29.27;;;15.98;;
40755;SDS011;26461;45.630;9.418;2023-01-05T00:37:06;30.02;;;14.13;;
40755;SDS011;26461;45.630;9.418;2023-01-05T00:40:18;15.60;;;11.68;;
40755;SDS011;26461;45.630;9.418;2023-01-05T00:43:28;25.20;;;10.45;;
40755;SDS011;26461;45.630;9.418;2023-01-05T00:46:38;24.20;;;15.15;;
40755;SDS011;26461;45.630;9.418;2023-01-05T00:49:48;25.33;;;11.57;;
40755;SDS011;26461;45.630;9.418;2023-01-05T00:52:58;26.33;;;16.13;;
40755;SDS011;26461;45.630;9.418;2023-01-05T00:56:08;21.35;;;11.77;;
40755;SDS011;26461;45.630;9.418;2023-01-05T00:59:18;23.35;;;15.00;;
40755;SDS011;26461;45.630;9.418;2023-01-05T01:02:27;28.55;;;16.20;;
40755;SDS011;26461;45.630;9.418;2023-01-05T01:05:37;24.05;;;13.48;;
40755;SDS011;26461;45.630;9.418;2023-01-05T01:08:47;28.88;;;14.27;;
40755;SDS011;26461;45.630;9.418;2023-01-05T01:11:57;22.40;;;14.55;;
40755;SDS011;26461;45.630;9.418;2023-01-05T01:15:08;23.60;;;13.32;;
40755;SDS011;26461;45.630;9.418;2023-01-05T01:18:14;15.45;;;11.30;;
40755;SDS011;26461;45.630;9.418;2023-01-05T01:21:24;20.35;;;12.35;;
40755;SDS011;26461;45.630;9.418;2023-01-05T01:24:34;21.20;;;12.32;;
40755;SDS011;26461;45.630;9.418;2023-01-05T01:27:44;25.45;;;15.90;;
40755;SDS011;26461;45.630;9.418;2023-01-05T01:30:55;28.42;;;13.57;;
40755;SDS011;26461;45.630;9.418;2023-01-05T01:34:06;21.75;;;14.73;;
40755;SDS011;26461;45.630;9.418;2023-01-05T01:37:17;23.95;;;13.70;;
40755;SDS011;26461;45.630;9.418;2023-01-05T01:40:36;23.50;;;12.20;;
40755;SDS011;26461;45.630;9.418;2023-01-05T01:43:54;15.52;;;11.10;;
40755;SDS011;26461;45.630;9.418;2023-01-05T01:47:05;22.38;;;13.15;;
40755;SDS011;26461;45.630;9.418;2023-01-05T01:53:42;23.88;;;12.05;;
40755;SDS011;26461;45.630;9.418;2023-01-05T01:56:55;17.10;;;11.55;;
40755;SDS011;26461;45.630;9.418;2023-01-05T02:00:05;27.00;;;12.57;;
40755;SDS011;26461;45.630;9.418;2023-01-05T02:03:27;25.98;;;14.00;;
40755;SDS011;26461;45.630;9.418;2023-01-05T02:06:37;15.68;;;8.55;;
40755;SDS011;26461;45.630;9.418;2023-01-05T02:09:47;23.13;;;10.65;;
40755;SDS011;26461;45.630;9.418;2023-01-05T02:13:00;19.25;;;11.75;;
40755;SDS011;26461;45.630;9.418;2023-01-05T02:27:13;12.05;;;8.95;;
40755;SDS011;26461;45.630;9.418;2023-01-05T02:34:32;13.63;;;11.13;;
40755;SDS011;26461;45.630;9.418;2023-01-05T02:41:24;7.18;;;6.75;;
40755;SDS011;26461;45.630;9.418;2023-01-05T02:45:00;24.77;;;11.25;;
40755;SDS011;26461;45.630;9.418;2023-01-05T02:48:12;16.25;;;8.65;;
40755;SDS011;26461;45.630;9.418;2023-01-05T02:51:22;13.18;;;7.55;;
40755;SDS011;26461;45.630;9.418;2023-01-05T02:54:46;25.48;;;11.32;;
40755;SDS011;26461;45.630;9.418;2023-01-05T02:58:09;12.98;;;6.80;;
40755;SDS011;26461;45.630;9.418;2023-01-05T03:01:36;17.00;;;8.23;;
40755;SDS011;26461;45.630;9.418;2023-01-05T03:04:52;13.70;;;7.30;;
40755;SDS011;26461;45.630;9.418;2023-01-05T03:08:13;25.85;;;12.13;;
40755;SDS011;26461;45.630;9.418;2023-01-05T03:11:52;9.20;;;7.40;;
40755;SDS011;26461;45.630;9.418;2023-01-05T03:15:30;9.95;;;7.25;;
40755;SDS011;26461;45.630;9.418;2023-01-05T03:18:41;21.45;;;10.15;;
40755;SDS011;26461;45.630;9.418;2023-01-05T03:22:25;16.90;;;10.02;;
40755;SDS011;26461;45.630;9.418;2023-01-05T03:25:58;13.85;;;9.20;;
40755;SDS011;26461;45.630;9.418;2023-01-05T03:29:27;17.63;;;9.30;;
40755;SDS011;26461;45.630;9.418;2023-01-05T03:32:57;21.80;;;11.38;;
40755;SDS011;26461;45.630;9.418;2023-01-05T03:36:36;14.40;;;8.00;;
40755;SDS011;26461;45.630;9.418;2023-01-05T03:40:12;15.65;;;8.70;;
40755;SDS011;26461;45.630;9.418;2023-01-05T03:43:32;15.57;;;10.00;;
40755;SDS011;26461;45.630;9.418;2023-01-05T03:46:44;12.88;;;8.73;;
40755;SDS011;26461;45.630;9.418;2023-01-05T03:49:54;22.63;;;9.88;;
40755;SDS011;26461;45.630;9.418;2023-01-05T03:52:58;18.75;;;8.07;;
40755;SDS011;26461;45.630;9.418;2023-01-05T03:56:09;16.88;;;8.60;;
40755;SDS011;26461;45.630;9.418;2023-01-05T03:59:19;10.38;;;7.47;;
40755;SDS011;26461;45.630;9.418;2023-01-05T04:02:29;16.30;;;8.40;;
40755;SDS011;26461;45.630;9.418;2023-01-05T04:05:39;22.80;;;9.55;;
40755;SDS011;26461;45.630;9.418;2023-01-05T04:08:49;10.52;;;5.57;;
40755;SDS011;26461;45.630;9.418;2023-01-05T04:12:01;15.48;;;8.60;;
40755;SDS011;26461;45.630;9.418;2023-01-05T04:15:10;12.82;;;7.25;;
40755;SDS011;26461;45.630;9.418;2023-01-05T04:18:21;10.85;;;7.20;;
40755;SDS011;26461;45.630;9.418;2023-01-05T04:21:31;13.48;;;8.23;;
40755;SDS011;26461;45.630;9.418;2023-01-05T04:24:42;14.77;;;7.65;;
40755;SDS011;26461;45.630;9.418;2023-01-05T04:27:51;9.18;;;6.35;;
40755;SDS011;26461;45.630;9.418;2023-01-05T04:31:01;13.43;;;8.60;;
40755;SDS011;26461;45.630;9.418;2023-01-05T04:34:12;13.13;;;8.88;;
40755;SDS011;26461;45.630;9.418;2023-01-05T04:37:17;15.40;;;8.27;;
40755;SDS011;26461;45.630;9.418;2023-01-05T04:40:26;18.77;;;9.88;;
40755;SDS011;26461;45.630;9.418;2023-01-05T04:43:37;12.13;;;6.25;;
40755;SDS011;26461;45.630;9.418;2023-01-05T04:46:50;13.40;;;7.22;;
40755;SDS011;26461;45.630;9.418;2023-01-05T04:49:59;10.77;;;9.10;;
40755;SDS011;26461;45.630;9.418;2023-01-05T04:53:09;11.55;;;7.30;;
40755;SDS011;26461;45.630;9.418;2023-01-05T04:56:19;14.80;;;6.93;;
40755;SDS011;26461;45.630;9.418;2023-01-05T04:59:29;15.95;;;8.70;;
40755;SDS011;26461;45.630;9.418;2023-01-05T05:02:40;12.27;;;6.93;;
40755;SDS011;26461;45.630;9.418;2023-01-05T05:05:52;8.98;;;6.35;;
40755;SDS011;26461;45.630;9.418;2023-01-05T05:09:04;14.48;;;6.00;;
40755;SDS011;26461;45.630;9.418;2023-01-05T05:12:15;10.82;;;9.43;;
40755;SDS011;26461;45.630;9.418;2023-01-05T05:15:29;10.25;;;7.50;;
40755;SDS011;26461;45.630;9.418;2023-01-05T05:18:41;13.77;;;8.93;;
40755;SDS011;26461;45.630;9.418;2023-01-05T05:21:55;9.77;;;5.35;;
40755;SDS011;26461;45.630;9.418;2023-01-05T05:25:06;13.07;;;7.18;;
40755;SDS011;26461;45.630;9.418;2023-01-05T05:28:20;19.25;;;8.27;;
40755;SDS011;26461;45.630;9.418;2023-01-05T05:31:31;12.10;;;9.32;;
40755;SDS011;26461;45.630;9.418;2023-01-05T05:34:41;13.02;;;9.82;;
40755;SDS011;26461;45.630;9.418;2023-01-05T05:37:51;19.67;;;8.25;;
40755;SDS011;26461;45.630;9.418;2023-01-05T05:41:01;18.40;;;9.00;;
40755;SDS011;26461;45.630;9.418;2023-01-05T05:44:11;23.08;;;12.52;;
40755;SDS011;26461;45.630;9.418;2023-01-05T05:47:20;11.60;;;10.80;;
40755;SDS011;26461;45.630;9.418;2023-01-05T05:50:31;13.65;;;11.85;;
40755;SDS011;26461;45.630;9.418;2023-01-05T05:53:42;15.93;;;8.32;;
40755;SDS011;26461;45.630;9.418;2023-01-05T05:56:52;14.65;;;9.90;;
40755;SDS011;26461;45.630;9.418;2023-01-05T06:00:03;20.15;;;9.43;;
40755;SDS011;26461;45.630;9.418;2023-01-05T06:03:16;20.05;;;11.95;;
40755;SDS011;26461;45.630;9.418;2023-01-05T06:06:21;29.83;;;15.10;;
40755;SDS011;26461;45.630;9.418;2023-01-05T06:09:30;14.77;;;11.02;;
40755;SDS011;26461;45.630;9.418;2023-01-05T06:12:40;21.90;;;10.60;;
40755;SDS011;26461;45.630;9.418;2023-01-05T06:15:51;18.13;;;10.07;;
40755;SDS011;26461;45.630;9.418;2023-01-05T06:19:00;19.02;;;10.10;;
40755;SDS011;26461;45.630;9.418;2023-01-05T06:22:10;18.65;;;9.70;;
40755;SDS011;26461;45.630;9.418;2023-01-05T06:25:20;12.32;;;7.32;;
40755;SDS011;26461;45.630;9.418;2023-01-05T06:28:30;12.13;;;6.55;;
40755;SDS011;26461;45.630;9.418;2023-01-05T06:31:40;11.63;;;9.40;;
40755;SDS011;26461;45.630;9.418;2023-01-05T06:34:50;13.32;;;9.55;;
40755;SDS011;26461;45.630;9.418;2023-01-05T06:37:55;13.38;;;9.52;;
40755;SDS011;26461;45.630;9.418;2023-01-05T06:41:00;12.02;;;6.40;;
40755;SDS011;26461;45.630;9.418;2023-01-05T06:44:10;14.68;;;7.60;;
40755;SDS011;26461;45.630;9.418;2023-01-05T06:47:20;14.15;;;8.30;;
40755;SDS011;26461;45.630;9.418;2023-01-05T06:50:29;26.90;;;14.75;;
40755;SDS011;26461;45.630;9.418;2023-01-05T06:53:39;22.98;;;12.93;;
40755;SDS011;26461;45.630;9.418;2023-01-05T06:56:50;27.02;;;12.52;;
40755;SDS011;26461;45.630;9.418;2023-01-05T07:00:00;26.67;;;13.13;;
40755;SDS011;26461;45.630;9.418;2023-01-05T07:03:15;22.67;;;13.70;;
40755;SDS011;26461;45.630;9.418;2023-01-05T07:06:25;25.35;;;11.77;;
40755;SDS011;26461;45.630;9.418;2023-01-05T07:09:35;17.23;;;10.80;;
40755;SDS011;26461;45.630;9.418;2023-01-05T07:12:45;19.50;;;7.40;;
40755;SDS011;26461;45.630;9.418;2023-01-05T07:15:54;16.33;;;9.55;;
40755;SDS011;26461;45.630;9.418;2023-01-05T07:19:04;11.43;;;6.90;;
40755;SDS011;26461;45.630;9.418;2023-01-05T07:22:16;10.75;;;5.90;;
40755;SDS011;26461;45.630;9.418;2023-01-05T07:25:26;11.38;;;6.90;;
40755;SDS011;26461;45.630;9.418;2023-01-05T07:28:39;8.43;;;6.60;;
40755;SDS011;26461;45.630;9.418;2023-01-05T07:31:49;15.25;;;13.15;;
40755;SDS011;26461;45.630;9.418;2023-01-05T07:35:00;15.50;;;6.97;;
40755;SDS011;26461;45.630;9.418;2023-01-05T07:38:10;16.55;;;9.85;;
40755;SDS011;26461;45.630;9.418;2023-01-05T07:41:20;11.88;;;11.25;;
40755;SDS011;26461;45.630;9.418;2023-01-05T07:44:25;19.02;;;12.70;;
40755;SDS011;26461;45.630;9.418;2023-01-05T07:47:37;17.05;;;8.27;;
40755;SDS011;26461;45.630;9.418;2023-01-05T07:50:47;16.27;;;7.22;;
40755;SDS011;26461;45.630;9.418;2023-01-05T07:53:57;12.35;;;7.97;;
40755;SDS011;26461;45.630;9.418;2023-01-05T07:57:07;26.40;;;8.68;;
40755;SDS011;26461;45.630;9.418;2023-01-05T08:00:17;7.20;;;4.93;;
40755;SDS011;26461;45.630;9.418;2023-01-05T08:03:28;16.50;;;5.35;;
40755;SDS011;26461;45.630;9.418;2023-01-05T08:06:37;10.70;;;6.88;;
40755;SDS011;26461;45.630;9.418;2023-01-05T08:09:48;9.45;;;4.40;;
40755;SDS011;26461;45.630;9.418;2023-01-05T08:13:17;8.20;;;4.72;;
40755;SDS011;26461;45.630;9.418;2023-01-05T08:16:45;16.38;;;6.60;;
40755;SDS011;26461;45.630;9.418;2023-01-05T08:19:55;8.65;;;4.85;;
40755;SDS011;26461;45.630;9.418;2023-01-05T08:23:05;9.40;;;3.90;;
40755;SDS011;26461;45.630;9.418;2023-01-05T08:26:16;10.50;;;6.78;;
40755;SDS011;26461;45.630;9.418;2023-01-05T08:29:27;17.55;;;8.75;;
40755;SDS011;26461;45.630;9.418;2023-01-05T08:32:38;15.05;;;9.45;;
40755;SDS011;26461;45.630;9.418;2023-01-05T08:35:43;5.32;;;4.40;;
40755;SDS011;26461;45.630;9.418;2023-01-05T08:38:53;10.48;;;4.95;;
40755;SDS011;26461;45.630;9.418;2023-01-05T08:42:03;11.98;;;7.88;;
40755;SDS011;26461;45.630;9.418;2023-01-05T08:45:14;18.83;;;7.03;;
40755;SDS011;26461;45.630;9.418;2023-01-05T08:48:18;7.47;;;4.88;;
40755;SDS011;26461;45.630;9.418;2023-01-05T08:55:03;7.65;;;4.95;;
40755;SDS011;26461;45.630;9.418;2023-01-05T09:01:51;4.75;;;3.50;;
40755;SDS011;26461;45.630;9.418;2023-01-05T09:05:01;12.75;;;5.05;;
40755;SDS011;26461;45.630;9.418;2023-01-05T09:08:11;9.65;;;5.72;;
40755;SDS011;26461;45.630;9.418;2023-01-05T09:11:22;7.18;;;3.83;;
40755;SDS011;26461;45.630;9.418;2023-01-05T09:14:33;7.00;;;5.43;;
40755;SDS011;26461;45.630;9.418;2023-01-05T09:17:38;9.48;;;4.15;;
40755;SDS011;26461;45.630;9.418;2023-01-05T09:20:54;17.20;;;5.13;;
40755;SDS011;26461;45.630;9.418;2023-01-05T09:27:41;7.45;;;4.47;;
40755;SDS011;26461;45.630;9.418;2023-01-05T09:30:53;8.35;;;5.80;;
40755;SDS011;26461;45.630;9.418;2023-01-05T09:34:03;12.18;;;3.80;;
40755;SDS011;26461;45.630;9.418;2023-01-05T09:37:08;6.40;;;3.20;;
40755;SDS011;26461;45.630;9.418;2023-01-05T09:40:18;4.07;;;1.90;;
40755;SDS011;26461;45.630;9.418;2023-01-05T09:43:33;13.35;;;5.25;;
40755;SDS011;26461;45.630;9.418;2023-01-05T09:46:45;6.75;;;2.22;;
40755;SDS011;26461;45.630;9.418;2023-01-05T09:53:36;7.57;;;1.40;;
40755;SDS011;26461;45.630;9.418;2023-01-05T09:56:47;4.18;;;1.85;;
40755;SDS011;26461;45.630;9.418;2023-01-05T10:03:45;4.55;;;2.67;;
40755;SDS011;26461;45.630;9.418;2023-01-05T10:07:15;4.18;;;1.25;;
40755;SDS011;26461;45.630;9.418;2023-01-05T10:10:44;4.82;;;1.60;;
40755;SDS011;26461;45.630;9.418;2023-01-05T10:14:39;11.60;;;2.17;;
40755;SDS011;26461;45.630;9.418;2023-01-05T10:17:54;8.27;;;4.25;;
40755;SDS011;26461;45.630;9.418;2023-01-05T10:25:02;5.30;;;2.42;;
40755;SDS011;26461;45.630;9.418;2023-01-05T10:31:53;8.93;;;2.42;;
40755;SDS011;26461;45.630;9.418;2023-01-05T10:38:49;11.15;;;2.88;;
40755;SDS011;26461;45.630;9.418;2023-01-05T10:42:13;7.05;;;3.35;;
40755;SDS011;26461;45.630;9.418;2023-01-05T10:45:45;14.82;;;2.72;;
40755;SDS011;26461;45.630;9.418;2023-01-05T10:48:57;8.32;;;3.17;;
40755;SDS011;26461;45.630;9.418;2023-01-05T10:52:11;6.43;;;2.50;;
40755;SDS011;26461;45.630;9.418;2023-01-05T10:55:22;7.32;;;2.33;;
40755;SDS011;26461;45.630;9.418;2023-01-05T10:58:36;5.30;;;3.80;;
40755;SDS011;26461;45.630;9.418;2023-01-05T11:01:47;7.00;;;2.58;;
40755;SDS011;26461;45.630;9.418;2023-01-05T11:05:00;7.00;;;1.88;;
40755;SDS011;26461;45.630;9.418;2023-01-05T11:08:26;5.55;;;1.55;;
40755;SDS011;26461;45.630;9.418;2023-01-05T11:11:37;6.25;;;3.25;;
40755;SDS011;26461;45.630;9.418;2023-01-05T11:14:52;6.00;;;3.13;;
40755;SDS011;26461;45.630;9.418;2023-01-05T11:18:04;6.80;;;2.83;;
40755;SDS011;26461;45.630;9.418;2023-01-05T11:21:11;9.07;;;3.55;;
40755;SDS011;26461;45.630;9.418;2023-01-05T11:27:32;4.80;;;2.08;;
40755;SDS011;26461;45.630;9.418;2023-01-05T11:30:58;9.82;;;3.15;;
40755;SDS011;26461;45.630;9.418;2023-01-05T11:37:45;9.45;;;3.70;;
40755;SDS011;26461;45.630;9.418;2023-01-05T11:40:59;8.10;;;4.18;;
40755;SDS011;26461;45.630;9.418;2023-01-05T11:44:05;14.23;;;3.00;;
40755;SDS011;26461;45.630;9.418;2023-01-05T11:47:25;19.27;;;4.22;;
40755;SDS011;26461;45.630;9.418;2023-01-05T11:50:49;10.82;;;3.38;;
40755;SDS011;26461;45.630;9.418;2023-01-05T11:54:02;8.77;;;3.55;;
40755;SDS011;26461;45.630;9.418;2023-01-05T11:57:15;5.65;;;2.10;;
40755;SDS011;26461;45.630;9.418;2023-01-05T12:17:03;5.72;;;3.42;;
40755;SDS011;26461;45.630;9.418;2023-01-05T12:30:45;11.27;;;4.13;;
40755;SDS011;26461;45.630;9.418;2023-01-05T12:34:37;9.57;;;3.65;;
40755;SDS011;26461;45.630;9.418;2023-01-05T12:55:44;15.70;;;4.10;;
40755;SDS011;26461;45.630;9.418;2023-01-05T12:59:05;5.43;;;2.78;;
40755;SDS011;26461;45.630;9.418;2023-01-05T13:05:41;12.77;;;2.88;;
40755;SDS011;26461;45.630;9.418;2023-01-05T13:09:28;4.05;;;1.65;;
40755;SDS011;26461;45.630;9.418;2023-01-05T13:12:39;5.90;;;2.70;;
40755;SDS011;26461;45.630;9.418;2023-01-05T13:19:22;6.53;;;3.30;;
40755;SDS011;26461;45.630;9.418;2023-01-05T13:22:34;10.43;;;2.53;;
40755;SDS011;26461;45.630;9.418;2023-01-05T13:25:49;6.20;;;3.22;;
40755;SDS011;26461;45.630;9.418;2023-01-05T13:29:20;9.02;;;2.58;;
40755;SDS011;26461;45.630;9.418;2023-01-05T13:36:31;7.13;;;3.53;;
40755;SDS011;26461;45.630;9.418;2023-01-05T13:40:02;7.47;;;3.10;;
40755;SDS011;26461;45.630;9.418;2023-01-05T13:53:46;7.00;;;3.65;;
40755;SDS011;26461;45.630;9.418;2023-01-05T13:56:59;12.23;;;3.25;;
40755;SDS011;26461;45.630;9.418;2023-01-05T14:00:22;3.33;;;2.15;;
40755;SDS011;26461;45.630;9.418;2023-01-05T14:03:36;12.23;;;3.45;;
40755;SDS011;26461;45.630;9.418;2023-01-05T14:06:49;7.50;;;5.65;;
40755;SDS011;26461;45.630;9.418;2023-01-05T14:10:03;6.20;;;2.72;;
40755;SDS011;26461;45.630;9.418;2023-01-05T14:16:51;9.85;;;2.70;;
40755;SDS011;26461;45.630;9.418;2023-01-05T14:20:02;8.02;;;3.20;;
40755;SDS011;26461;45.630;9.418;2023-01-05T14:27:09;5.97;;;2.30;;
40755;SDS011;26461;45.630;9.418;2023-01-05T14:30:32;5.10;;;1.85;;
40755;SDS011;26461;45.630;9.418;2023-01-05T14:33:52;3.75;;;2.53;;
40755;SDS011;26461;45.630;9.418;2023-01-05T14:37:22;6.47;;;2.10;;
40755;SDS011;26461;45.630;9.418;2023-01-05T14:40:36;3.72;;;2.67;;
40755;SDS011;26461;45.630;9.418;2023-01-05T14:44:05;7.22;;;4.00;;
40755;SDS011;26461;45.630;9.418;2023-01-05T14:47:35;5.75;;;1.65;;
40755;SDS011;26461;45.630;9.418;2023-01-05T14:51:07;9.95;;;3.38;;
40755;SDS011;26461;45.630;9.418;2023-01-05T14:54:35;5.22;;;2.13;;
40755;SDS011;26461;45.630;9.418;2023-01-05T14:57:53;12.75;;;3.85;;
40755;SDS011;26461;45.630;9.418;2023-01-05T15:04:27;7.63;;;3.50;;
40755;SDS011;26461;45.630;9.418;2023-01-05T15:11:27;14.20;;;3.70;;
40755;SDS011;26461;45.630;9.418;2023-01-05T15:15:14;10.77;;;3.95;;
40755;SDS011;26461;45.630;9.418;2023-01-05T15:18:45;7.07;;;3.63;;
40755;SDS011;26461;45.630;9.418;2023-01-05T15:32:36;7.43;;;2.95;;
40755;SDS011;26461;45.630;9.418;2023-01-05T15:35:54;9.52;;;2.42;;
40755;SDS011;26461;45.630;9.418;2023-01-05T15:39:43;21.77;;;5.90;;
40755;SDS011;26461;45.630;9.418;2023-01-05T15:42:53;7.70;;;3.75;;
40755;SDS011;26461;45.630;9.418;2023-01-05T15:46:06;4.20;;;2.65;;
40755;SDS011;26461;45.630;9.418;2023-01-05T15:49:22;11.50;;;4.32;;
40755;SDS011;26461;45.630;9.418;2023-01-05T15:52:36;6.45;;;3.78;;
40755;SDS011;26461;45.630;9.418;2023-01-05T15:55:47;9.57;;;3.85;;
40755;SDS011;26461;45.630;9.418;2023-01-05T15:59:00;10.20;;;4.63;;
40755;SDS011;26461;45.630;9.418;2023-01-05T16:02:15;5.18;;;2.63;;
40755;SDS011;26461;45.630;9.418;2023-01-05T16:05:29;9.77;;;2.80;;
40755;SDS011;26461;45.630;9.418;2023-01-05T16:08:43;7.82;;;6.45;;
40755;SDS011;26461;45.630;9.418;2023-01-05T16:11:57;4.15;;;2.53;;
40755;SDS011;26461;45.630;9.418;2023-01-05T16:15:15;7.13;;;2.30;;
40755;SDS011;26461;45.630;9.418;2023-01-05T16:18:33;10.27;;;5.13;;
40755;SDS011;26461;45.630;9.418;2023-01-05T16:21:47;6.85;;;3.67;;
40755;SDS011;26461;45.630;9.418;2023-01-05T16:25:03;8.13;;;2.50;;
40755;SDS011;26461;45.630;9.418;2023-01-05T16:28:15;9.73;;;3.28;;
40755;SDS011;26461;45.630;9.418;2023-01-05T16:31:28;11.32;;;2.42;;
40755;SDS011;26461;45.630;9.418;2023-01-05T16:34:42;6.45;;;4.25;;
40755;SDS011;26461;45.630;9.418;2023-01-05T16:38:03;9.90;;;6.97;;
40755;SDS011;26461;45.630;9.418;2023-01-05T16:44:29;9.57;;;6.95;;
40755;SDS011;26461;45.630;9.418;2023-01-05T16:47:42;10.10;;;4.28;;
40755;SDS011;26461;45.630;9.418;2023-01-05T16:50:54;11.18;;;5.03;;
40755;SDS011;26461;45.630;9.418;2023-01-05T16:54:14;8.38;;;3.90;;
40755;SDS011;26461;45.630;9.418;2023-01-05T16:57:42;6.72;;;2.95;;
40755;SDS011;26461;45.630;9.418;2023-01-05T17:00:53;9.02;;;4.97;;
40755;SDS011;26461;45.630;9.418;2023-01-05T17:04:12;8.43;;;3.97;;
40755;SDS011;26461;45.630;9.418;2023-01-05T17:07:24;10.48;;;4.57;;
40755;SDS011;26461;45.630;9.418;2023-01-05T17:10:35;12.38;;;5.35;;
40755;SDS011;26461;45.630;9.418;2023-01-05T17:13:51;16.70;;;6.35;;
40755;SDS011;26461;45.630;9.418;2023-01-05T17:17:02;11.57;;;5.50;;
40755;SDS011;26461;45.630;9.418;2023-01-05T17:20:13;14.95;;;7.13;;
40755;SDS011;26461;45.630;9.418;2023-01-05T17:23:24;7.80;;;5.30;;
40755;SDS011;26461;45.630;9.418;2023-01-05T17:26:41;4.70;;;4.43;;
40755;SDS011;26461;45.630;9.418;2023-01-05T17:29:52;9.80;;;5.18;;
40755;SDS011;26461;45.630;9.418;2023-01-05T17:36:38;12.35;;;5.82;;
40755;SDS011;26461;45.630;9.418;2023-01-05T17:39:49;11.45;;;7.97;;
40755;SDS011;26461;45.630;9.418;2023-01-05T17:42:59;23.63;;;7.20;;
40755;SDS011;26461;45.630;9.418;2023-01-05T17:46:18;11.98;;;4.60;;
40755;SDS011;26461;45.630;9.418;2023-01-05T17:49:30;12.52;;;7.28;;
40755;SDS011;26461;45.630;9.418;2023-01-05T17:52:41;13.88;;;5.95;;
40755;SDS011;26461;45.630;9.418;2023-01-05T17:55:53;12.38;;;8.48;;
40755;SDS011;26461;45.630;9.418;2023-01-05T17:59:03;13.25;;;8.30;;
40755;SDS011;26461;45.630;9.418;2023-01-05T18:02:09;12.60;;;6.40;;
40755;SDS011;26461;45.630;9.418;2023-01-05T18:05:15;21.08;;;8.65;;
40755;SDS011;26461;45.630;9.418;2023-01-05T18:08:23;11.77;;;6.55;;
40755;SDS011;26461;45.630;9.418;2023-01-05T18:11:33;10.98;;;8.45;;
40755;SDS011;26461;45.630;9.418;2023-01-05T18:14:43;25.13;;;6.78;;
40755;SDS011;26461;45.630;9.418;2023-01-05T18:17:55;14.15;;;5.65;;
40755;SDS011;26461;45.630;9.418;2023-01-05T18:21:02;15.82;;;10.13;;
40755;SDS011;26461;45.630;9.418;2023-01-05T18:24:13;20.00;;;7.97;;
40755;SDS011;26461;45.630;9.418;2023-01-05T18:27:23;12.95;;;6.88;;
40755;SDS011;26461;45.630;9.418;2023-01-05T18:30:29;8.18;;;5.00;;
40755;SDS011;26461;45.630;9.418;2023-01-05T18:33:34;14.13;;;6.45;;
40755;SDS011;26461;45.630;9.418;2023-01-05T18:36:39;7.95;;;6.55;;
40755;SDS011;26461;45.630;9.418;2023-01-05T18:39:48;13.27;;;6.75;;
40755;SDS011;26461;45.630;9.418;2023-01-05T18:42:54;9.45;;;5.22;;
40755;SDS011;26461;45.630;9.418;2023-01-05T18:45:59;15.00;;;6.38;;
40755;SDS011;26461;45.630;9.418;2023-01-05T18:49:05;8.43;;;6.75;;
40755;SDS011;26461;45.630;9.418;2023-01-05T18:52:15;16.92;;;7.55;;
40755;SDS011;26461;45.630;9.418;2023-01-05T18:55:21;19.23;;;10.68;;
40755;SDS011;26461;45.630;9.418;2023-01-05T18:58:31;16.65;;;8.98;;
40755;SDS011;26461;45.630;9.418;2023-01-05T19:01:37;18.13;;;8.88;;
40755;SDS011;26461;45.630;9.418;2023-01-05T19:04:51;14.00;;;10.20;;
40755;SDS011;26461;45.630;9.418;2023-01-05T19:08:02;17.63;;;9.95;;
40755;SDS011;26461;45.630;9.418;2023-01-05T19:11:17;22.98;;;11.20;;
40755;SDS011;26461;45.630;9.418;2023-01-05T19:14:29;9.57;;;9.07;;
40755;SDS011;26461;45.630;9.418;2023-01-05T19:17:35;18.77;;;11.43;;
40755;SDS011;26461;45.630;9.418;2023-01-05T19:20:41;23.45;;;10.45;;
40755;SDS011;26461;45.630;9.418;2023-01-05T19:23:47;12.45;;;8.93;;
40755;SDS011;26461;45.630;9.418;2023-01-05T19:26:54;23.98;;;10.98;;
40755;SDS011;26461;45.630;9.418;2023-01-05T19:30:05;22.02;;;11.23;;
40755;SDS011;26461;45.630;9.418;2023-01-05T19:33:13;19.15;;;11.10;;
40755;SDS011;26461;45.630;9.418;2023-01-05T19:36:22;19.23;;;10.70;;
40755;SDS011;26461;45.630;9.418;2023-01-05T19:39:31;21.60;;;14.88;;
40755;SDS011;26461;45.630;9.418;2023-01-05T19:42:36;18.65;;;10.60;;
40755;SDS011;26461;45.630;9.418;2023-01-05T19:45:43;15.35;;;10.68;;
40755;SDS011;26461;45.630;9.418;2023-01-05T19:48:51;36.20;;;14.30;;
40755;SDS011;26461;45.630;9.418;2023-01-05T19:52:01;16.27;;;10.32;;
40755;SDS011;26461;45.630;9.418;2023-01-05T19:55:12;14.43;;;11.43;;
40755;SDS011;26461;45.630;9.418;2023-01-05T19:58:26;23.77;;;14.70;;
40755;SDS011;26461;45.630;9.418;2023-01-05T20:01:36;16.63;;;12.48;;
40755;SDS011;26461;45.630;9.418;2023-01-05T20:04:49;17.27;;;11.82;;
40755;SDS011;26461;45.630;9.418;2023-01-05T20:07:55;18.35;;;12.82;;
40755;SDS011;26461;45.630;9.418;2023-01-05T20:11:09;18.73;;;10.82;;
40755;SDS011;26461;45.630;9.418;2023-01-05T20:14:25;14.82;;;10.98;;
40755;SDS011;26461;45.630;9.418;2023-01-05T20:17:34;17.05;;;8.73;;
40755;SDS011;26461;45.630;9.418;2023-01-05T20:20:39;21.20;;;11.98;;
40755;SDS011;26461;45.630;9.418;2023-01-05T20:23:54;10.52;;;8.93;;
40755;SDS011;26461;45.630;9.418;2023-01-05T20:27:05;15.25;;;10.90;;
40755;SDS011;26461;45.630;9.418;2023-01-05T20:30:22;17.30;;;9.52;;
40755;SDS011;26461;45.630;9.418;2023-01-05T20:33:34;14.52;;;11.55;;
40755;SDS011;26461;45.630;9.418;2023-01-05T20:36:46;16.70;;;12.65;;
40755;SDS011;26461;45.630;9.418;2023-01-05T20:39:58;20.67;;;9.20;;
40755;SDS011;26461;45.630;9.418;2023-01-05T20:43:08;14.50;;;8.80;;
40755;SDS011;26461;45.630;9.418;2023-01-05T20:46:19;16.02;;;10.68;;
40755;SDS011;26461;45.630;9.418;2023-01-05T20:49:36;24.95;;;9.48;;
40755;SDS011;26461;45.630;9.418;2023-01-05T20:52:46;14.95;;;8.90;;
40755;SDS011;26461;45.630;9.418;2023-01-05T20:55:56;24.38;;;9.45;;
40755;SDS011;26461;45.630;9.418;2023-01-05T20:59:08;16.15;;;10.27;;
40755;SDS011;26461;45.630;9.418;2023-01-05T21:02:20;13.20;;;8.48;;
40755;SDS011;26461;45.630;9.418;2023-01-05T21:05:30;19.95;;;9.20;;
40755;SDS011;26461;45.630;9.418;2023-01-05T21:08:40;18.80;;;10.60;;
40755;SDS011;26461;45.630;9.418;2023-01-05T21:11:52;18.98;;;11.02;;
40755;SDS011;26461;45.630;9.418;2023-01-05T21:15:03;14.68;;;12.50;;
40755;SDS011;26461;45.630;9.418;2023-01-05T21:18:13;18.88;;;9.23;;
40755;SDS011;26461;45.630;9.418;2023-01-05T21:21:25;14.80;;;9.50;;
40755;SDS011;26461;45.630;9.418;2023-01-05T21:24:37;23.50;;;14.55;;
40755;SDS011;26461;45.630;9.418;2023-01-05T21:27:50;18.52;;;10.57;;
40755;SDS011;26461;45.630;9.418;2023-01-05T21:31:00;18.55;;;10.25;;
40755;SDS011;26461;45.630;9.418;2023-01-05T21:34:11;21.73;;;12.63;;
40755;SDS011;26461;45.630;9.418;2023-01-05T21:37:17;14.90;;;10.00;;
40755;SDS011;26461;45.630;9.418;2023-01-05T21:40:27;18.50;;;9.40;;
40755;SDS011;26461;45.630;9.418;2023-01-05T21:43:39;18.77;;;8.88;;
40755;SDS011;26461;45.630;9.418;2023-01-05T21:46:49;20.25;;;12.48;;